createdAt,value
2018-09-03T00:00:20.217Z,95
2018-09-03T00:01:22.338Z,95
2018-09-03T00:02:24.820Z,95
2018-09-03T00:03:26.934Z,95
2018-09-03T00:04:29.027Z,95
2018-09-03T00:05:31.434Z,95
2018-09-03T00:06:33.528Z,95
2018-09-03T00:07:35.634Z,95
2018-09-03T00:08:37.748Z,95
2018-09-03T00:09:40.148Z,95
2018-09-03T00:10:42.272Z,95
2018-09-03T00:11:44.680Z,95
2018-09-03T00:12:47.061Z,94
2018-09-03T00:13:49.163Z,95
2018-09-03T00:14:51.277Z,94
2018-09-03T00:15:53.767Z,94
2018-09-03T00:16:55.873Z,94
2018-09-03T00:17:57.979Z,94
2018-09-03T00:19:00.073Z,94
2018-09-03T00:20:02.178Z,94
2018-09-03T00:21:04.288Z,94
2018-09-03T00:22:06.959Z,94
2018-09-03T00:23:09.072Z,94
2018-09-03T00:24:11.179Z,94
2018-09-03T00:25:13.279Z,94
2018-09-03T00:26:15.686Z,94
2018-09-03T00:27:17.787Z,94
2018-09-03T00:28:20.178Z,94
2018-09-03T00:29:22.271Z,94
2018-09-03T00:30:24.388Z,94
2018-09-03T00:31:26.479Z,94
2018-09-03T00:32:28.577Z,94
2018-09-03T00:33:31.077Z,94
2018-09-03T00:34:33.167Z,94
2018-09-03T00:35:35.283Z,94
2018-09-03T00:36:37.383Z,94
2018-09-03T00:37:39.496Z,94
2018-09-03T00:38:41.589Z,94
2018-09-03T00:39:44.088Z,94
2018-09-03T00:40:46.188Z,94
2018-09-03T00:41:48.352Z,94
2018-09-03T00:42:50.779Z,94
2018-09-03T00:43:52.872Z,95
2018-09-03T00:44:54.977Z,95
2018-09-03T00:45:57.082Z,95
2018-09-03T00:46:59.185Z,95
2018-09-03T00:48:01.277Z,95
2018-09-03T00:49:03.386Z,95
2018-09-03T00:50:05.481Z,95
2018-09-03T00:51:07.580Z,95
2018-09-03T00:52:09.692Z,95
2018-09-03T00:53:11.795Z,95
2018-09-03T00:54:14.173Z,95
2018-09-03T00:55:16.599Z,95
2018-09-03T00:56:18.700Z,95
2018-09-03T00:57:21.473Z,96
2018-09-03T00:58:23.586Z,95
2018-09-03T00:59:25.959Z,96
2018-09-03T01:00:28.066Z,96
2018-09-03T01:01:30.170Z,96
2018-09-03T01:02:32.276Z,96
2018-09-03T01:03:34.365Z,96
2018-09-03T01:04:36.483Z,96
2018-09-03T01:05:39.262Z,96
2018-09-03T01:06:41.356Z,96
2018-09-03T01:07:43.455Z,96
2018-09-03T01:08:45.562Z,96
2018-09-03T01:09:47.659Z,96
2018-09-03T01:10:50.152Z,96
2018-09-03T01:11:52.528Z,96
2018-09-03T01:12:55.324Z,96
2018-09-03T01:13:57.422Z,96
2018-09-03T01:14:59.523Z,97
2018-09-03T01:16:01.639Z,97
2018-09-03T01:17:03.730Z,96
2018-09-03T01:18:05.834Z,97
2018-09-03T01:19:07.950Z,97
2018-09-03T01:20:10.352Z,96
2018-09-03T01:21:12.443Z,97
2018-09-03T01:22:14.549Z,97
2018-09-03T01:23:16.641Z,96
2018-09-03T01:24:18.740Z,97
2018-09-03T01:25:20.852Z,97
2018-09-03T01:26:22.956Z,97
2018-09-03T01:27:25.340Z,97
2018-09-03T01:28:27.459Z,97
2018-09-03T01:29:30.043Z,97
2018-09-03T01:30:32.121Z,97
2018-09-03T01:31:34.222Z,97
2018-09-03T01:32:36.309Z,97
2018-09-03T01:33:38.815Z,97
2018-09-03T01:34:40.916Z,97
2018-09-03T01:35:43.032Z,96
2018-09-03T01:36:45.120Z,96
2018-09-03T01:37:47.522Z,96
2018-09-03T01:38:49.624Z,96
2018-09-03T01:39:51.718Z,96
2018-09-03T01:40:53.833Z,96
2018-09-03T01:41:56.320Z,96
2018-09-03T01:42:58.420Z,96
2018-09-03T01:44:00.518Z,96
2018-09-03T01:45:02.930Z,96
2018-09-03T01:46:05.033Z,96
2018-09-03T01:47:07.423Z,96
2018-09-03T01:48:09.520Z,96
2018-09-03T01:49:11.629Z,96
2018-09-03T01:50:14.125Z,96
2018-09-03T01:51:17.165Z,96
2018-09-03T01:52:19.272Z,96
2018-09-03T01:53:21.678Z,96
2018-09-03T01:54:24.070Z,96
2018-09-03T01:55:26.166Z,96
2018-09-03T01:56:28.544Z,97
2018-09-03T01:57:30.642Z,96
2018-09-03T01:58:32.752Z,97
2018-09-03T01:59:34.860Z,97
2018-09-03T02:00:36.962Z,97
2018-09-03T02:01:39.363Z,96
2018-09-03T02:02:41.753Z,96
2018-09-03T02:03:43.856Z,96
2018-09-03T02:04:45.966Z,96
2018-09-03T02:05:48.348Z,96
2018-09-03T02:06:50.459Z,96
2018-09-03T02:07:52.561Z,96
2018-09-03T02:08:54.673Z,96
2018-09-03T02:09:56.757Z,97
2018-09-03T02:10:58.876Z,96
2018-09-03T02:12:00.976Z,96
2018-09-03T02:13:03.072Z,96
2018-09-03T02:14:05.187Z,96
2018-09-03T02:15:07.280Z,96
2018-09-03T02:16:09.387Z,96
2018-09-03T02:17:11.482Z,96
2018-09-03T02:18:13.599Z,96
2018-09-03T02:19:15.690Z,96
2018-09-03T02:20:18.183Z,96
2018-09-03T02:21:20.287Z,96
2018-09-03T02:22:22.670Z,96
2018-09-03T02:23:24.779Z,96
2018-09-03T02:24:27.174Z,96
2018-09-03T02:25:29.290Z,96
2018-09-03T02:26:31.389Z,96
2018-09-03T02:27:33.875Z,96
2018-09-03T02:28:35.980Z,96
2018-09-03T02:29:38.075Z,96
2018-09-03T02:30:40.175Z,96
2018-09-03T02:31:42.291Z,96
2018-09-03T02:32:44.699Z,96
2018-09-03T02:33:46.794Z,96
2018-09-03T02:34:48.906Z,96
2018-09-03T02:35:51.005Z,96
2018-09-03T02:36:53.396Z,96
2018-09-03T02:37:55.510Z,96
2018-09-03T02:38:57.607Z,96
2018-09-03T02:39:59.716Z,96
2018-09-03T02:41:01.819Z,96
2018-09-03T02:42:03.938Z,96
2018-09-03T02:43:06.624Z,96
2018-09-03T02:44:08.736Z,96
2018-09-03T02:45:11.136Z,96
2018-09-03T02:46:13.511Z,96
2018-09-03T02:47:15.912Z,96
2018-09-03T02:48:18.299Z,96
2018-09-03T02:49:20.405Z,96
2018-09-03T02:50:22.894Z,96
2018-09-03T02:51:25.009Z,96
2018-09-03T02:52:27.393Z,96
2018-09-03T02:53:29.499Z,96
2018-09-03T02:54:31.610Z,96
2018-09-03T02:55:33.708Z,96
2018-09-03T02:56:35.821Z,96
2018-09-03T02:57:38.215Z,96
2018-09-03T02:58:40.313Z,95
2018-09-03T02:59:42.415Z,95
2018-09-03T03:00:44.530Z,96
2018-09-03T03:01:46.918Z,96
2018-09-03T03:02:49.027Z,95
2018-09-03T03:03:51.142Z,96
2018-09-03T03:04:53.529Z,95
2018-09-03T03:05:56.028Z,95
2018-09-03T03:06:58.143Z,95
2018-09-03T03:08:00.235Z,95
2018-09-03T03:09:02.342Z,95
2018-09-03T03:10:04.453Z,95
2018-09-03T03:11:06.563Z,95
2018-09-03T03:12:08.676Z,95
2018-09-03T03:13:11.059Z,95
2018-09-03T03:14:13.550Z,95
2018-09-03T03:15:15.642Z,95
2018-09-03T03:16:17.756Z,95
2018-09-03T03:17:20.446Z,95
2018-09-03T03:18:22.559Z,94
2018-09-03T03:19:25.261Z,95
2018-09-03T03:20:27.358Z,95
2018-09-03T03:21:29.764Z,94
2018-09-03T03:22:31.864Z,95
2018-09-03T03:23:33.968Z,95
2018-09-03T03:24:36.058Z,95
2018-09-03T03:25:38.175Z,95
2018-09-03T03:26:40.572Z,95
2018-09-03T03:27:42.978Z,94
2018-09-03T03:28:45.788Z,94
2018-09-03T03:29:47.877Z,94
2018-09-03T03:30:50.668Z,94
2018-09-03T03:31:52.774Z,94
2018-09-03T03:32:55.500Z,94
2018-09-03T03:33:57.590Z,94
2018-09-03T03:34:59.699Z,94
2018-09-03T03:36:01.790Z,94
2018-09-03T03:37:04.183Z,94
2018-09-03T03:38:06.295Z,94
2018-09-03T03:39:08.393Z,94
2018-09-03T03:40:10.503Z,94
2018-09-03T03:41:12.981Z,94
2018-09-03T03:42:15.092Z,94
2018-09-03T03:43:17.200Z,94
2018-09-03T03:44:19.300Z,94
2018-09-03T03:45:21.412Z,94
2018-09-03T03:46:23.508Z,94
2018-09-03T03:47:25.610Z,94
2018-09-03T03:48:27.707Z,94
2018-09-03T03:49:29.821Z,94
2018-09-03T03:50:31.914Z,94
2018-09-03T03:51:34.013Z,94
2018-09-03T03:52:36.120Z,94
2018-09-03T03:53:38.217Z,94
2018-09-03T03:54:40.651Z,94
2018-09-03T03:55:43.040Z,94
2018-09-03T03:56:45.463Z,94
2018-09-03T03:57:47.855Z,94
2018-09-03T03:58:50.355Z,94
2018-09-03T03:59:53.126Z,94
2018-09-03T04:00:55.223Z,94
2018-09-03T04:01:57.719Z,94
2018-09-03T04:03:00.491Z,94
2018-09-03T04:04:03.561Z,94
2018-09-03T04:05:05.675Z,94
2018-09-03T04:06:07.779Z,94
2018-09-03T04:07:09.874Z,94
2018-09-03T04:08:12.377Z,94
2018-09-03T04:09:14.475Z,94
2018-09-03T04:10:16.582Z,94
2018-09-03T04:11:18.698Z,94
2018-09-03T04:12:21.115Z,94
2018-09-03T04:13:23.211Z,94
2018-09-03T04:14:25.325Z,94
2018-09-03T04:15:27.712Z,94
2018-09-03T04:16:30.207Z,93
2018-09-03T04:17:32.594Z,93
2018-09-03T04:18:34.706Z,93
2018-09-03T04:19:36.812Z,93
2018-09-03T04:20:38.912Z,93
2018-09-03T04:21:41.313Z,93
2018-09-03T04:22:43.428Z,93
2018-09-03T04:23:45.523Z,93
2018-09-03T04:24:47.627Z,93
2018-09-03T04:25:49.733Z,94
2018-09-03T04:26:51.826Z,94
2018-09-03T04:27:53.955Z,95
2018-09-03T04:28:56.535Z,94
2018-09-03T04:29:58.461Z,95
2018-09-03T04:31:00.551Z,95
2018-09-03T04:32:02.665Z,95
2018-09-03T04:33:04.762Z,96
2018-09-03T04:34:07.151Z,96
2018-09-03T04:35:09.271Z,96
2018-09-03T04:36:11.360Z,96
2018-09-03T04:37:13.468Z,96
2018-09-03T04:38:15.872Z,97
2018-09-03T04:39:17.981Z,97
2018-09-03T04:40:20.082Z,97
2018-09-03T04:41:22.195Z,97
2018-09-03T04:42:24.297Z,97
2018-09-03T04:43:26.688Z,97
2018-09-03T04:44:28.802Z,96
2018-09-03T04:45:30.902Z,96
2018-09-03T04:46:33.426Z,96
2018-09-03T04:47:35.512Z,96
2018-09-03T04:48:38.002Z,96
2018-09-03T04:49:40.098Z,96
2018-09-03T04:50:42.205Z,96
2018-09-03T04:51:44.294Z,96
2018-09-03T04:52:46.694Z,96
2018-09-03T04:53:48.803Z,96
2018-09-03T04:54:51.204Z,96
2018-09-03T04:55:53.308Z,96
2018-09-03T04:56:55.395Z,96
2018-09-03T04:57:57.503Z,95
2018-09-03T04:58:59.619Z,95
2018-09-03T05:00:02.117Z,95
2018-09-03T05:01:04.227Z,95
2018-09-03T05:02:06.331Z,95
2018-09-03T05:03:08.836Z,95
2018-09-03T05:04:10.924Z,95
2018-09-03T05:05:13.047Z,95
2018-09-03T05:06:15.831Z,95
2018-09-03T05:07:17.924Z,95
2018-09-03T05:08:20.044Z,95
2018-09-03T05:09:22.139Z,95
2018-09-03T05:10:24.853Z,95
2018-09-03T05:11:27.260Z,95
2018-09-03T05:12:29.365Z,95
2018-09-03T05:13:31.848Z,94
2018-09-03T05:14:33.952Z,94
2018-09-03T05:15:36.063Z,94
2018-09-03T05:16:38.169Z,94
2018-09-03T05:17:40.285Z,94
2018-09-03T05:18:42.386Z,94
2018-09-03T05:19:44.478Z,94
2018-09-03T05:20:46.589Z,94
2018-09-03T05:21:48.686Z,94
2018-09-03T05:22:50.788Z,93
2018-09-03T05:23:53.189Z,93
2018-09-03T05:24:55.280Z,93
2018-09-03T05:25:57.391Z,93
2018-09-03T05:26:59.491Z,94
2018-09-03T05:28:01.601Z,93
2018-09-03T05:29:03.689Z,93
2018-09-03T05:30:05.808Z,93
2018-09-03T05:31:07.944Z,93
2018-09-03T05:32:10.003Z,93
2018-09-03T05:33:12.407Z,93
2018-09-03T05:34:14.506Z,93
2018-09-03T05:35:16.610Z,93
2018-09-03T05:36:18.712Z,93
2018-09-03T05:37:20.826Z,93
2018-09-03T05:38:22.915Z,93
2018-09-03T05:39:25.050Z,93
2018-09-03T05:40:27.457Z,92
2018-09-03T05:41:29.937Z,92
2018-09-03T05:42:32.065Z,92
2018-09-03T05:43:34.865Z,92
2018-09-03T05:44:37.429Z,92
2018-09-03T05:45:39.534Z,92
2018-09-03T05:46:41.653Z,92
2018-09-03T05:47:44.055Z,92
2018-09-03T05:48:46.160Z,92
2018-09-03T05:49:48.268Z,92
2018-09-03T05:50:50.358Z,92
2018-09-03T05:51:52.784Z,92
2018-09-03T05:52:54.896Z,92
2018-09-03T05:53:56.987Z,91
2018-09-03T05:54:59.102Z,92
2018-09-03T05:56:01.886Z,92
2018-09-03T05:57:03.985Z,92
2018-09-03T05:58:06.102Z,92
2018-09-03T05:59:08.212Z,92
2018-09-03T06:00:10.303Z,92
2018-09-03T06:01:12.714Z,92
2018-09-03T06:02:14.831Z,92
2018-09-03T06:03:16.924Z,92
2018-09-03T06:04:19.028Z,92
2018-09-03T06:05:21.137Z,92
2018-09-03T06:06:23.226Z,92
2018-09-03T06:07:25.338Z,92
2018-09-03T06:08:27.440Z,92
2018-09-03T06:09:29.552Z,91
2018-09-03T06:10:31.715Z,91
2018-09-03T06:11:33.752Z,91
2018-09-03T06:12:36.143Z,91
2018-09-03T06:13:38.252Z,91
2018-09-03T06:14:40.637Z,91
2018-09-03T06:15:42.752Z,91
2018-09-03T06:16:44.852Z,91
2018-09-03T06:17:46.952Z,90
2018-09-03T06:18:49.358Z,90
2018-09-03T06:19:52.053Z,91
2018-09-03T06:20:54.154Z,90
2018-09-03T06:21:56.267Z,90
2018-09-03T06:22:58.767Z,89
2018-09-03T06:24:00.869Z,89
2018-09-03T06:25:03.357Z,89
2018-09-03T06:26:05.783Z,89
2018-09-03T06:27:08.160Z,88
2018-09-03T06:28:10.268Z,88
2018-09-03T06:29:12.668Z,88
2018-09-03T06:30:14.772Z,88
2018-09-03T06:31:16.887Z,88
2018-09-03T06:32:18.987Z,88
2018-09-03T06:33:21.097Z,87
2018-09-03T06:34:23.198Z,87
2018-09-03T06:35:25.319Z,86
2018-09-03T06:36:27.808Z,87
2018-09-03T06:37:29.917Z,86
2018-09-03T06:38:32.415Z,86
2018-09-03T06:39:34.510Z,86
2018-09-03T06:40:37.197Z,86
2018-09-03T06:41:39.585Z,86
2018-09-03T06:42:41.692Z,87
2018-09-03T06:43:44.172Z,87
2018-09-03T06:44:46.285Z,86
2018-09-03T06:45:48.486Z,86
2018-09-03T06:46:51.236Z,85
2018-09-03T06:47:53.933Z,86
2018-09-03T06:48:56.034Z,86
2018-09-03T06:49:58.523Z,86
2018-09-03T06:51:00.617Z,86
2018-09-03T06:52:02.722Z,85
2018-09-03T06:53:04.845Z,85
2018-09-03T06:54:06.950Z,85
2018-09-03T06:55:09.058Z,85
2018-09-03T06:56:11.166Z,85
2018-09-03T06:57:13.258Z,85
2018-09-03T06:58:16.045Z,85
2018-09-03T06:59:18.592Z,84
2018-09-03T07:00:20.944Z,85
2018-09-03T07:01:23.054Z,85
2018-09-03T07:02:25.164Z,84
2018-09-03T07:03:27.574Z,84
2018-09-03T07:04:29.696Z,84
2018-09-03T07:05:31.792Z,84
2018-09-03T07:06:33.904Z,84
2018-09-03T07:07:36.290Z,83
2018-09-03T07:08:38.405Z,84
2018-09-03T07:09:40.497Z,83
2018-09-03T07:10:42.604Z,83
2018-09-03T07:11:44.723Z,83
2018-09-03T07:12:46.816Z,84
2018-09-03T07:13:49.004Z,83
2018-09-03T07:14:51.037Z,83
2018-09-03T07:15:53.153Z,84
2018-09-03T07:16:55.526Z,84
2018-09-03T07:17:57.641Z,83
2018-09-03T07:18:59.740Z,82
2018-09-03T07:20:01.839Z,83
2018-09-03T07:21:03.960Z,83
2018-09-03T07:22:06.054Z,82
2018-09-03T07:23:08.159Z,82
2018-09-03T07:24:10.273Z,82
2018-09-03T07:25:12.493Z,82
2018-09-03T07:26:14.593Z,83
2018-09-03T07:27:16.995Z,82
2018-09-03T07:28:19.110Z,82
2018-09-03T07:29:21.219Z,82
2018-09-03T07:30:23.316Z,81
2018-09-03T07:31:25.424Z,81
2018-09-03T07:32:27.539Z,81
2018-09-03T07:33:29.945Z,81
2018-09-03T07:34:32.346Z,80
2018-09-03T07:35:34.905Z,79
2018-09-03T07:36:37.368Z,79
2018-09-03T07:37:40.085Z,79
2018-09-03T07:38:42.574Z,79
2018-09-03T07:39:45.267Z,78
2018-09-03T07:40:47.366Z,77
2018-09-03T07:41:49.849Z,77
2018-09-03T07:42:51.974Z,77
2018-09-03T07:43:54.084Z,77
2018-09-03T07:44:56.200Z,76
2018-09-03T07:45:58.690Z,76
2018-09-03T07:47:00.808Z,75
2018-09-03T07:48:02.914Z,76
2018-09-03T07:49:05.315Z,76
2018-09-03T07:50:07.803Z,76
2018-09-03T07:51:11.313Z,75
2018-09-03T07:52:13.763Z,75
2018-09-03T07:53:15.868Z,76
2018-09-03T07:54:17.988Z,74
2018-09-03T07:55:20.536Z,74
2018-09-03T07:56:22.981Z,75
2018-09-03T07:57:25.100Z,75
2018-09-03T07:58:27.213Z,75
2018-09-03T07:59:29.308Z,75
2018-09-03T08:00:31.424Z,74
2018-09-03T08:01:33.526Z,74
2018-09-03T08:02:35.636Z,74
2018-09-03T08:03:38.357Z,73
2018-09-03T08:04:40.463Z,73
2018-09-03T08:05:42.564Z,73
2018-09-03T08:06:44.689Z,73
2018-09-03T08:07:46.794Z,73
2018-09-03T08:08:48.901Z,73
2018-09-03T08:09:51.019Z,73
2018-09-03T08:10:53.116Z,74
2018-09-03T08:11:55.550Z,74
2018-09-03T08:12:57.703Z,74
2018-09-03T08:13:59.781Z,73
2018-09-03T08:15:02.205Z,73
2018-09-03T08:16:04.388Z,72
2018-09-03T08:17:06.428Z,70
2018-09-03T08:18:08.533Z,71
2018-09-03T08:19:10.945Z,70
2018-09-03T08:20:13.047Z,69
2018-09-03T08:21:15.195Z,69
2018-09-03T08:22:17.300Z,68
2018-09-03T08:23:19.727Z,67
2018-09-03T08:24:22.127Z,67
2018-09-03T08:25:24.252Z,68
2018-09-03T08:26:26.368Z,68
2018-09-03T08:27:28.758Z,68
2018-09-03T08:28:30.881Z,66
2018-09-03T08:29:33.282Z,67
2018-09-03T08:30:35.980Z,67
2018-09-03T08:31:38.484Z,67
2018-09-03T08:32:40.897Z,66
2018-09-03T08:33:43.007Z,66
2018-09-03T08:34:45.125Z,65
2018-09-03T08:35:47.634Z,64
2018-09-03T08:36:49.732Z,64
2018-09-03T08:37:52.160Z,63
2018-09-03T08:38:54.277Z,64
2018-09-03T08:39:56.440Z,65
2018-09-03T08:40:58.495Z,65
2018-09-03T08:42:00.613Z,66
2018-09-03T08:43:03.116Z,64
2018-09-03T08:44:05.217Z,64
2018-09-03T08:45:07.344Z,63
2018-09-03T08:46:09.463Z,64
2018-09-03T08:47:11.878Z,63
2018-09-03T08:48:13.977Z,62
2018-09-03T08:49:16.101Z,62
2018-09-03T08:50:18.472Z,63
2018-09-03T08:51:20.522Z,62
2018-09-03T08:52:22.942Z,62
2018-09-03T08:53:25.049Z,62
2018-09-03T08:54:27.166Z,61
2018-09-03T08:55:29.281Z,62
2018-09-03T08:56:31.417Z,62
2018-09-03T08:57:33.522Z,62
2018-09-03T08:58:35.648Z,61
2018-09-03T08:59:37.775Z,61
2018-09-03T09:00:40.559Z,61
2018-09-03T09:01:43.008Z,62
2018-09-03T09:02:45.126Z,60
2018-09-03T09:03:47.237Z,60
2018-09-03T09:04:49.353Z,60
2018-09-03T09:05:51.828Z,61
2018-09-03T09:06:54.296Z,58
2018-09-03T09:07:56.422Z,61
2018-09-03T09:08:58.543Z,60
2018-09-03T09:10:00.942Z,58
2018-09-03T09:11:03.064Z,58
2018-09-03T09:12:05.191Z,58
2018-09-03T09:13:07.298Z,57
2018-09-03T09:14:09.426Z,59
2018-09-03T09:15:11.890Z,58
2018-09-03T09:16:14.013Z,58
2018-09-03T09:17:16.145Z,57
2018-09-03T09:18:18.647Z,57
2018-09-03T09:19:21.051Z,58
2018-09-03T09:20:23.157Z,58
2018-09-03T09:21:25.270Z,60
2018-09-03T09:22:27.791Z,59
2018-09-03T09:23:29.907Z,58
2018-09-03T09:24:32.135Z,58
2018-09-03T09:25:34.150Z,57
2018-09-03T09:26:36.280Z,56
2018-09-03T09:27:38.687Z,57
2018-09-03T09:28:40.803Z,56
2018-09-03T09:29:43.239Z,56
2018-09-03T09:30:45.356Z,57
2018-09-03T09:31:47.476Z,57
2018-09-03T09:32:49.897Z,56
2018-09-03T09:33:52.002Z,57
2018-09-03T09:34:54.137Z,56
2018-09-03T09:35:56.282Z,57
2018-09-03T09:36:58.366Z,55
2018-09-03T09:38:00.484Z,55
2018-09-03T09:39:02.614Z,56
2018-09-03T09:40:04.730Z,54
2018-09-03T09:41:06.860Z,55
2018-09-03T09:42:08.982Z,56
2018-09-03T09:43:11.118Z,54
2018-09-03T09:44:13.599Z,55
2018-09-03T09:45:15.724Z,56
2018-09-03T09:46:17.841Z,55
2018-09-03T09:47:20.279Z,55
2018-09-03T09:48:22.403Z,55
2018-09-03T09:49:24.810Z,55
2018-09-03T09:50:26.941Z,53
2018-09-03T09:51:29.054Z,54
2018-09-03T09:52:31.171Z,54
2018-09-03T09:53:33.574Z,54
2018-09-03T09:54:35.707Z,53
2018-09-03T09:55:38.602Z,52
2018-09-03T09:56:41.305Z,52
2018-09-03T09:57:44.119Z,53
2018-09-03T09:58:46.525Z,53
2018-09-03T09:59:48.639Z,52
2018-09-03T10:00:50.765Z,52
2018-09-03T10:01:53.182Z,54
2018-09-03T10:02:55.315Z,53
2018-09-03T10:03:57.431Z,53
2018-09-03T10:04:59.552Z,52
2018-09-03T10:06:01.678Z,53
2018-09-03T10:07:03.790Z,53
2018-09-03T10:08:05.922Z,52
2018-09-03T10:09:08.334Z,51
2018-09-03T10:10:10.447Z,51
2018-09-03T10:11:12.570Z,51
2018-09-03T10:12:14.705Z,50
2018-09-03T10:13:16.822Z,51
2018-09-03T10:14:18.949Z,51
2018-09-03T10:15:21.069Z,52
2018-09-03T10:16:23.850Z,50
2018-09-03T10:17:25.973Z,51
2018-09-03T10:18:28.110Z,52
2018-09-03T10:19:30.218Z,51
2018-09-03T10:20:32.344Z,52
2018-09-03T10:21:34.786Z,51
2018-09-03T10:22:36.898Z,51
2018-09-03T10:23:39.030Z,52
2018-09-03T10:24:41.149Z,50
2018-09-03T10:25:43.555Z,50
2018-09-03T10:26:45.664Z,50
2018-09-03T10:27:47.803Z,51
2018-09-03T10:28:49.911Z,50
2018-09-03T10:29:52.032Z,51
2018-09-03T10:30:54.160Z,50
2018-09-03T10:31:56.314Z,49
2018-09-03T10:32:58.405Z,50
2018-09-03T10:34:00.531Z,50
2018-09-03T10:35:02.958Z,49
2018-09-03T10:36:05.065Z,49
2018-09-03T10:37:07.197Z,50
2018-09-03T10:38:09.348Z,49
2018-09-03T10:39:11.430Z,49
2018-09-03T10:40:13.561Z,50
2018-09-03T10:41:16.070Z,49
2018-09-03T10:42:18.190Z,49
2018-09-03T10:43:20.712Z,49
2018-09-03T10:44:22.836Z,50
2018-09-03T10:45:24.946Z,51
2018-09-03T10:46:27.079Z,51
2018-09-03T10:47:29.257Z,51
2018-09-03T10:48:31.312Z,51
2018-09-03T10:49:33.830Z,51
2018-09-03T10:50:35.967Z,51
2018-09-03T10:51:38.083Z,51
2018-09-03T10:52:40.513Z,50
2018-09-03T10:53:42.637Z,49
2018-09-03T10:54:45.139Z,51
2018-09-03T10:55:47.268Z,48
2018-09-03T10:56:49.849Z,50
2018-09-03T10:57:52.387Z,50
2018-09-03T10:58:54.508Z,50
2018-09-03T10:59:56.640Z,49
2018-09-03T11:00:59.042Z,48
2018-09-03T11:02:01.557Z,49
2018-09-03T11:03:04.159Z,48
2018-09-03T11:04:06.319Z,49
2018-09-03T11:05:08.465Z,49
2018-09-03T11:06:10.873Z,50
2018-09-03T11:07:12.998Z,50
2018-09-03T11:08:15.412Z,49
2018-09-03T11:09:17.549Z,48
2018-09-03T11:10:19.675Z,48
2018-09-03T11:11:21.809Z,48
2018-09-03T11:12:24.347Z,48
2018-09-03T11:13:26.466Z,48
2018-09-03T11:14:28.620Z,48
2018-09-03T11:15:30.720Z,47
2018-09-03T11:16:32.884Z,47
2018-09-03T11:17:34.973Z,47
2018-09-03T11:18:37.096Z,47
2018-09-03T11:19:39.646Z,49
2018-09-03T11:20:41.778Z,49
2018-09-03T11:21:44.070Z,48
2018-09-03T11:22:46.177Z,49
2018-09-03T11:23:48.302Z,48
2018-09-03T11:24:51.658Z,48
2018-09-03T11:25:54.308Z,48
2018-09-03T11:26:56.508Z,49
2018-09-03T11:27:59.064Z,49
2018-09-03T11:29:01.491Z,49
2018-09-03T11:30:03.600Z,48
2018-09-03T11:31:06.015Z,48
2018-09-03T11:32:08.144Z,48
2018-09-03T11:33:10.309Z,47
2018-09-03T11:34:12.852Z,46
2018-09-03T11:35:14.997Z,47
2018-09-03T11:36:17.118Z,47
2018-09-03T11:37:19.241Z,47
2018-09-03T11:38:21.668Z,46
2018-09-03T11:39:23.781Z,46
2018-09-03T11:40:25.908Z,45
2018-09-03T11:41:28.417Z,46
2018-09-03T11:42:30.843Z,46
2018-09-03T11:43:32.957Z,47
2018-09-03T11:44:35.089Z,46
2018-09-03T11:45:37.505Z,47
2018-09-03T11:46:40.004Z,47
2018-09-03T11:47:42.134Z,46
2018-09-03T11:48:44.260Z,47
2018-09-03T11:49:46.382Z,47
2018-09-03T11:50:48.509Z,47
2018-09-03T11:51:50.938Z,47
2018-09-03T11:52:56.508Z,47
2018-09-03T11:54:00.662Z,46
2018-09-03T11:55:03.590Z,46
2018-09-03T11:56:06.402Z,45
2018-09-03T11:57:08.527Z,44
2018-09-03T11:58:10.641Z,45
2018-09-03T11:59:12.781Z,45
2018-09-03T12:00:14.904Z,45
2018-09-03T12:01:17.014Z,45
2018-09-03T12:02:19.147Z,44
2018-09-03T12:03:21.951Z,45
2018-09-03T12:04:24.076Z,45
2018-09-03T12:05:26.212Z,44
2018-09-03T12:06:28.414Z,44
2018-09-03T12:07:31.190Z,45
2018-09-03T12:08:33.364Z,45
2018-09-03T12:09:35.492Z,46
2018-09-03T12:10:37.611Z,45
2018-09-03T12:11:39.757Z,45
2018-09-03T12:12:42.171Z,46
2018-09-03T12:13:44.294Z,45
2018-09-03T12:14:46.741Z,46
2018-09-03T12:15:48.876Z,46
2018-09-03T12:16:50.994Z,47
2018-09-03T12:17:53.135Z,46
2018-09-03T12:18:55.265Z,45
2018-09-03T12:19:57.384Z,44
2018-09-03T12:20:59.865Z,44
2018-09-03T12:22:01.943Z,44
2018-09-03T12:23:04.064Z,45
2018-09-03T12:24:06.192Z,44
2018-09-03T12:25:08.633Z,45
2018-09-03T12:26:10.747Z,46
2018-09-03T12:27:12.886Z,45
2018-09-03T12:28:15.314Z,45
2018-09-03T12:29:17.427Z,46
2018-09-03T12:30:19.551Z,46
2018-09-03T12:31:22.210Z,45
2018-09-03T12:32:24.290Z,46
2018-09-03T12:33:26.413Z,47
2018-09-03T12:34:28.818Z,48
2018-09-03T12:35:30.957Z,46
2018-09-03T12:36:33.076Z,46
2018-09-03T12:37:35.496Z,46
2018-09-03T12:38:37.623Z,46
2018-09-03T12:39:40.072Z,46
2018-09-03T12:40:42.183Z,45
2018-09-03T12:41:44.620Z,47
2018-09-03T12:42:47.133Z,45
2018-09-03T12:43:49.834Z,46
2018-09-03T12:44:51.974Z,48
2018-09-03T12:45:54.085Z,48
2018-09-03T12:46:56.214Z,48
2018-09-03T12:47:58.338Z,47
2018-09-03T12:49:00.474Z,45
2018-09-03T12:50:02.619Z,46
2018-09-03T12:51:04.748Z,46
2018-09-03T12:52:06.849Z,47
2018-09-03T12:53:08.963Z,47
2018-09-03T12:54:11.097Z,48
2018-09-03T12:55:13.535Z,48
2018-09-03T12:56:16.046Z,49
2018-09-03T12:57:18.847Z,47
2018-09-03T12:58:20.980Z,48
2018-09-03T12:59:23.103Z,48
2018-09-03T13:00:25.235Z,48
2018-09-03T13:01:27.362Z,48
2018-09-03T13:02:29.782Z,48
2018-09-03T13:03:31.912Z,47
2018-09-03T13:04:34.173Z,46
2018-09-03T13:05:36.207Z,45
2018-09-03T13:06:38.353Z,45
2018-09-03T13:07:40.479Z,46
2018-09-03T13:08:42.982Z,46
2018-09-03T13:09:45.117Z,47
2018-09-03T13:10:47.235Z,46
2018-09-03T13:11:49.359Z,46
2018-09-03T13:12:51.531Z,47
2018-09-03T13:13:53.616Z,47
2018-09-03T13:14:55.730Z,47
2018-09-03T13:15:58.161Z,46
2018-09-03T13:17:00.291Z,47
2018-09-03T13:18:02.404Z,46
2018-09-03T13:19:04.851Z,46
2018-09-03T13:20:07.279Z,46
2018-09-03T13:21:09.404Z,47
2018-09-03T13:22:11.515Z,46
2018-09-03T13:23:13.650Z,46
2018-09-03T13:24:16.075Z,45
2018-09-03T13:25:18.197Z,45
2018-09-03T13:26:20.325Z,46
2018-09-03T13:27:22.440Z,44
2018-09-03T13:28:24.564Z,45
2018-09-03T13:29:26.696Z,46
2018-09-03T13:30:28.820Z,45
2018-09-03T13:31:30.935Z,45
2018-09-03T13:32:33.070Z,46
2018-09-03T13:33:35.500Z,45
2018-09-03T13:34:37.646Z,46
2018-09-03T13:35:40.089Z,45
2018-09-03T13:36:42.212Z,45
2018-09-03T13:37:44.328Z,44
2018-09-03T13:38:46.468Z,45
2018-09-03T13:39:48.584Z,44
2018-09-03T13:40:50.721Z,44
2018-09-03T13:41:52.884Z,45
2018-09-03T13:42:54.963Z,45
2018-09-03T13:43:57.486Z,45
2018-09-03T13:44:59.610Z,45
2018-09-03T13:46:02.059Z,45
2018-09-03T13:47:04.183Z,45
2018-09-03T13:48:06.323Z,45
2018-09-03T13:49:08.417Z,45
2018-09-03T13:50:10.841Z,44
2018-09-03T13:51:13.656Z,46
2018-09-03T13:52:15.790Z,45
2018-09-03T13:53:18.202Z,45
2018-09-03T13:54:21.022Z,45
2018-09-03T13:55:24.617Z,45
2018-09-03T13:56:26.826Z,45
2018-09-03T13:57:28.908Z,45
2018-09-03T13:58:31.127Z,45
2018-09-03T13:59:33.253Z,45
2018-09-03T14:00:35.366Z,45
2018-09-03T14:01:37.498Z,44
2018-09-03T14:02:39.770Z,46
2018-09-03T14:03:41.910Z,45
2018-09-03T14:04:44.512Z,46
2018-09-03T14:05:46.968Z,46
2018-09-03T14:06:49.081Z,46
2018-09-03T14:07:51.203Z,46
2018-09-03T14:08:53.331Z,47
2018-09-03T14:09:55.852Z,46
2018-09-03T14:10:57.960Z,47
2018-09-03T14:12:00.470Z,46
2018-09-03T14:13:03.374Z,45
2018-09-03T14:14:05.477Z,44
2018-09-03T14:15:07.621Z,46
2018-09-03T14:16:09.738Z,45
2018-09-03T14:17:11.865Z,44
2018-09-03T14:18:13.988Z,43
2018-09-03T14:19:16.126Z,45
2018-09-03T14:20:18.245Z,45
2018-09-03T14:21:20.383Z,45
2018-09-03T14:22:23.453Z,45
2018-09-03T14:23:25.563Z,45
2018-09-03T14:24:27.695Z,45
2018-09-03T14:25:29.810Z,45
2018-09-03T14:26:31.935Z,45
2018-09-03T14:27:34.057Z,45
2018-09-03T14:28:36.223Z,45
2018-09-03T14:29:39.152Z,46
2018-09-03T14:30:41.286Z,44
2018-09-03T14:31:43.418Z,46
2018-09-03T14:32:45.532Z,45
2018-09-03T14:33:47.665Z,46
2018-09-03T14:34:49.786Z,45
2018-09-03T14:35:51.907Z,44
2018-09-03T14:36:54.067Z,43
2018-09-03T14:37:56.507Z,43
2018-09-03T14:38:58.624Z,42
2018-09-03T14:40:00.757Z,44
2018-09-03T14:41:02.880Z,44
2018-09-03T14:42:04.996Z,44
2018-09-03T14:43:07.144Z,43
2018-09-03T14:44:09.641Z,42
2018-09-03T14:45:12.116Z,44
2018-09-03T14:46:14.516Z,44
2018-09-03T14:47:16.656Z,45